Hauptseite
METAR-TAF:

METAR-TAF

Flughäfen :

Flughafen Dschibuti

Dschibuti, Dschibuti

Breite: 11-33N, Länge: 043-10E, Höhe: 49 m

Beobachtung

Neuester Wetterbericht von vor 47 Minuten, um 04:00 UTC
Wind 3 kt aus Südwest
Temperatur 26°C
Luftfeuchtigkeit 79%
Luftdruck 1017 hPa
Leicht bewölkt in der Höhe von 2300 ft

METAR: HDAM 160400Z 22003KT 9/9 FEW023 26/22 Q1017

Zeit: 07:47 (04:47 UTC)

Prognose

Gültige Prognose vom 16 um 00 UTC bis 16 um 24 UTC
Wind 10 kt aus Ost
Sichtweite 10 km oder mehr
Aufgelockert bewölkt in der Höhe von 2000 ft
Übergehend zu
vom 16 um 03 UTC bis 16 um 12 UTC
Wind 10 kt aus Ost, Böen bis zu 15 kt
Aufgelockert bewölkt in der Höhe von 2300 ft
Übergehend zu
vom 16 um 15 UTC bis 16 um 18 UTC
Wind 5 kt aus unterschiedlichen Richtungen
Leicht bewölkt in der Höhe von 2000 ft

TAF: HDAM 1600/1624 10010KT 9999 SCT020 BECMG 1603/1612 08010G15KT SCT023 BECMG 1615/1618 VRB05KT FEW020

Wetterbeobachtungen und Prognosen von mehr als 4000 Flughäfen (METAR und TAF Bericht).

Die verfügbaren Stationen werden durch gelbe und rote Markierungen auf der Karte dargestellt.

Führen Sie die Maus auf sie, um den Namen der Station zu sehen.

Darauf klicken, um die Beobachtung von Wetterbeobachtungen und Prognosen zu sehen.

Um die Karte zu ändern : klicken Sie auf den grünen Tasten mit einem schwarzen Kreuz Zum Vergrößern, auf den grünen Button mit einem Gedankenstrich zu verkleinern, oder auf die grünen Pfeile für benachbarte Karten.


METAR-TAF: